sensor_id;sensor_type;location;lat;lon;timestamp;pressure;altitude;pressure_sealevel;temperature;humidity
7760;BME280;3924;48.830;9.262;2024-02-26T00:01:00;96722.59;;;7.83;64.48
7760;BME280;3924;48.830;9.262;2024-02-26T00:03:27;96724.50;;;7.82;64.34
7760;BME280;3924;48.830;9.262;2024-02-26T00:05:54;96722.09;;;7.81;64.63
7760;BME280;3924;48.830;9.262;2024-02-26T00:08:22;96729.41;;;7.80;64.43
7760;BME280;3924;48.830;9.262;2024-02-26T00:10:49;96728.59;;;7.80;64.59
7760;BME280;3924;48.830;9.262;2024-02-26T00:13:15;96733.22;;;7.79;64.44
7760;BME280;3924;48.830;9.262;2024-02-26T00:15:42;96727.34;;;7.77;64.47
7760;BME280;3924;48.830;9.262;2024-02-26T00:18:08;96723.06;;;7.76;64.86
7760;BME280;3924;48.830;9.262;2024-02-26T00:20:35;96720.22;;;7.73;64.69
7760;BME280;3924;48.830;9.262;2024-02-26T00:23:02;96718.94;;;7.70;64.80
7760;BME280;3924;48.830;9.262;2024-02-26T00:25:29;96728.16;;;7.69;64.82
7760;BME280;3924;48.830;9.262;2024-02-26T00:27:55;96716.56;;;7.68;64.78
7760;BME280;3924;48.830;9.262;2024-02-26T00:30:21;96711.00;;;7.65;64.83
7760;BME280;3924;48.830;9.262;2024-02-26T00:32:49;96707.84;;;7.63;64.92
7760;BME280;3924;48.830;9.262;2024-02-26T00:35:16;96713.72;;;7.65;65.07
7760;BME280;3924;48.830;9.262;2024-02-26T00:37:43;96707.84;;;7.63;64.96
7760;BME280;3924;48.830;9.262;2024-02-26T00:40:10;96698.47;;;7.60;64.99
7760;BME280;3924;48.830;9.262;2024-02-26T00:42:37;96702.28;;;7.59;65.28
7760;BME280;3924;48.830;9.262;2024-02-26T00:45:04;96706.91;;;7.59;65.04
7760;BME280;3924;48.830;9.262;2024-02-26T00:47:30;96707.69;;;7.59;65.27
7760;BME280;3924;48.830;9.262;2024-02-26T00:49:57;96705.78;;;7.60;65.35
7760;BME280;3924;48.830;9.262;2024-02-26T00:52:23;96701.50;;;7.59;65.36
7760;BME280;3924;48.830;9.262;2024-02-26T00:54:50;96698.81;;;7.59;65.34
7760;BME280;3924;48.830;9.262;2024-02-26T00:57:16;96694.53;;;7.58;65.39
7760;BME280;3924;48.830;9.262;2024-02-26T00:59:43;96695.31;;;7.58;64.96
7760;BME280;3924;48.830;9.262;2024-02-26T01:02:09;96694.53;;;7.58;65.28
7760;BME280;3924;48.830;9.262;2024-02-26T01:04:36;96701.50;;;7.59;65.03
7760;BME280;3924;48.830;9.262;2024-02-26T01:07:02;96710.06;;;7.61;65.37
7760;BME280;3924;48.830;9.262;2024-02-26T01:09:29;96718.63;;;7.63;65.53
7760;BME280;3924;48.830;9.262;2024-02-26T01:11:56;96712.59;;;7.66;65.36
7760;BME280;3924;48.830;9.262;2024-02-26T01:14:22;96726.88;;;7.66;65.07
7760;BME280;3924;48.830;9.262;2024-02-26T01:16:50;96714.19;;;7.67;65.17
7760;BME280;3924;48.830;9.262;2024-02-26T01:19:16;96713.72;;;7.65;65.05
7760;BME280;3924;48.830;9.262;2024-02-26T01:21:43;96703.25;;;7.63;65.12
7760;BME280;3924;48.830;9.262;2024-02-26T01:24:09;96698.19;;;7.62;65.16
7760;BME280;3924;48.830;9.262;2024-02-26T01:26:36;96700.06;;;7.61;65.32
7760;BME280;3924;48.830;9.262;2024-02-26T01:29:03;96698.00;;;7.58;65.27
7760;BME280;3924;48.830;9.262;2024-02-26T01:31:29;96687.56;;;7.57;65.63
7760;BME280;3924;48.830;9.262;2024-02-26T01:33:56;96705.63;;;7.56;65.38
7760;BME280;3924;48.830;9.262;2024-02-26T01:36:23;96684.06;;;7.56;65.53
7760;BME280;3924;48.830;9.262;2024-02-26T01:38:49;96688.19;;;7.54;65.43
7760;BME280;3924;48.830;9.262;2024-02-26T01:41:16;96703.56;;;7.53;65.44
7760;BME280;3924;48.830;9.262;2024-02-26T01:43:43;96714.34;;;7.53;65.48
7760;BME280;3924;48.830;9.262;2024-02-26T01:46:12;96713.56;;;7.53;65.34
7760;BME280;3924;48.830;9.262;2024-02-26T01:48:44;96705.13;;;7.54;65.71
7760;BME280;3924;48.830;9.262;2024-02-26T01:51:13;96702.78;;;7.53;65.29
7760;BME280;3924;48.830;9.262;2024-02-26T01:53:40;96710.41;;;7.51;65.47
7760;BME280;3924;48.830;9.262;2024-02-26T01:56:07;96725.47;;;7.52;65.49
7760;BME280;3924;48.830;9.262;2024-02-26T01:58:35;96745.91;;;7.53;65.60
7760;BME280;3924;48.830;9.262;2024-02-26T02:01:02;96746.69;;;7.53;65.49
7760;BME280;3924;48.830;9.262;2024-02-26T02:03:30;96739.72;;;7.52;65.44
7760;BME280;3924;48.830;9.262;2024-02-26T02:05:57;96735.13;;;7.53;65.63
7760;BME280;3924;48.830;9.262;2024-02-26T02:08:23;96735.13;;;7.53;65.65
7760;BME280;3924;48.830;9.262;2024-02-26T02:10:50;96732.75;;;7.51;65.64
7760;BME280;3924;48.830;9.262;2024-02-26T02:13:18;96744.97;;;7.49;65.69
7760;BME280;3924;48.830;9.262;2024-02-26T02:15:44;96756.56;;;7.49;65.74
7760;BME280;3924;48.830;9.262;2024-02-26T02:18:11;96757.34;;;7.50;65.71
7760;BME280;3924;48.830;9.262;2024-02-26T02:20:37;96751.94;;;7.50;65.60
7760;BME280;3924;48.830;9.262;2024-02-26T02:23:04;96756.22;;;7.51;65.68
7760;BME280;3924;48.830;9.262;2024-02-26T02:25:30;96744.97;;;7.49;65.61
7760;BME280;3924;48.830;9.262;2024-02-26T02:27:57;96754.97;;;7.48;65.63
7760;BME280;3924;48.830;9.262;2024-02-26T02:30:27;96753.69;;;7.46;65.81
7760;BME280;3924;48.830;9.262;2024-02-26T02:32:55;96748.59;;;7.44;65.63
7760;BME280;3924;48.830;9.262;2024-02-26T02:35:21;96749.41;;;7.45;65.88
7760;BME280;3924;48.830;9.262;2024-02-26T02:37:49;96746.72;;;7.45;65.75
7760;BME280;3924;48.830;9.262;2024-02-26T02:40:16;96742.56;;;7.47;65.67
7760;BME280;3924;48.830;9.262;2024-02-26T02:42:43;96740.38;;;7.49;65.96
7760;BME280;3924;48.830;9.262;2024-02-26T02:45:09;96755.75;;;7.49;65.77
7760;BME280;3924;48.830;9.262;2024-02-26T02:47:36;96743.38;;;7.48;65.62
7760;BME280;3924;48.830;9.262;2024-02-26T02:50:04;96753.53;;;7.51;65.60
7760;BME280;3924;48.830;9.262;2024-02-26T02:52:31;96750.50;;;7.52;65.71
7760;BME280;3924;48.830;9.262;2024-02-26T02:54:58;96759.72;;;7.51;65.57
7760;BME280;3924;48.830;9.262;2024-02-26T02:57:25;96761.94;;;7.49;65.79
7760;BME280;3924;48.830;9.262;2024-02-26T02:59:51;96764.94;;;7.48;65.63
7760;BME280;3924;48.830;9.262;2024-02-26T03:02:18;96748.59;;;7.44;66.00
7760;BME280;3924;48.830;9.262;2024-02-26T03:04:44;96741.63;;;7.43;65.91
7760;BME280;3924;48.830;9.262;2024-02-26T03:07:11;96739.25;;;7.42;66.16
7760;BME280;3924;48.830;9.262;2024-02-26T03:09:38;96750.97;;;7.46;65.96
7760;BME280;3924;48.830;9.262;2024-02-26T03:12:04;96754.16;;;7.48;66.03
7760;BME280;3924;48.830;9.262;2024-02-26T03:14:31;96766.38;;;7.45;66.11
7760;BME280;3924;48.830;9.262;2024-02-26T03:16:57;96766.38;;;7.45;66.08
7760;BME280;3924;48.830;9.262;2024-02-26T03:19:24;96768.75;;;7.47;66.21
7760;BME280;3924;48.830;9.262;2024-02-26T03:21:52;96766.84;;;7.47;66.44
7760;BME280;3924;48.830;9.262;2024-02-26T03:24:19;96761.78;;;7.46;66.16
7760;BME280;3924;48.830;9.262;2024-02-26T03:26:45;96760.97;;;7.45;66.26
7760;BME280;3924;48.830;9.262;2024-02-26T03:29:12;96744.66;;;7.42;66.57
7760;BME280;3924;48.830;9.262;2024-02-26T03:31:38;96745.44;;;7.42;66.65
7760;BME280;3924;48.830;9.262;2024-02-26T03:34:05;96745.75;;;7.40;66.66
7760;BME280;3924;48.830;9.262;2024-02-26T03:36:32;96751.13;;;7.40;66.86
7760;BME280;3924;48.830;9.262;2024-02-26T03:38:58;96758.44;;;7.40;66.76
7760;BME280;3924;48.830;9.262;2024-02-26T03:41:25;96764.63;;;7.40;66.85
7760;BME280;3924;48.830;9.262;2024-02-26T03:44:09;96756.84;;;7.39;66.97
7760;BME280;3924;48.830;9.262;2024-02-26T03:46:36;96760.34;;;7.39;66.90
7760;BME280;3924;48.830;9.262;2024-02-26T03:49:03;96741.78;;;7.38;67.02
7760;BME280;3924;48.830;9.262;2024-02-26T03:51:30;96738.94;;;7.34;67.02
7760;BME280;3924;48.830;9.262;2024-02-26T03:53:58;96727.66;;;7.32;67.16
7760;BME280;3924;48.830;9.262;2024-02-26T03:56:26;96730.22;;;7.29;67.17
7760;BME280;3924;48.830;9.262;2024-02-26T03:58:53;96713.06;;;7.25;67.51
7760;BME280;3924;48.830;9.262;2024-02-26T04:01:20;96714.97;;;7.24;67.43
7760;BME280;3924;48.830;9.262;2024-02-26T04:03:46;96715.63;;;7.21;67.51
7760;BME280;3924;48.830;9.262;2024-02-26T04:06:13;96720.84;;;7.18;67.56
7760;BME280;3924;48.830;9.262;2024-02-26T04:08:41;96724.97;;;7.15;67.50
7760;BME280;3924;48.830;9.262;2024-02-26T04:11:08;96726.88;;;7.15;67.71
7760;BME280;3924;48.830;9.262;2024-02-26T04:13:34;96727.66;;;7.15;67.65
7760;BME280;3924;48.830;9.262;2024-02-26T04:16:01;96727.97;;;7.13;68.02
7760;BME280;3924;48.830;9.262;2024-02-26T04:18:28;96739.56;;;7.14;68.06
7760;BME280;3924;48.830;9.262;2024-02-26T04:20:55;96726.56;;;7.16;68.08
7760;BME280;3924;48.830;9.262;2024-02-26T04:23:23;96716.38;;;7.13;68.15
7760;BME280;3924;48.830;9.262;2024-02-26T04:25:50;96705.16;;;7.11;67.96
7760;BME280;3924;48.830;9.262;2024-02-26T04:28:17;96708.47;;;7.08;68.31
7760;BME280;3924;48.830;9.262;2024-02-26T04:30:43;96713.88;;;7.08;68.39
7760;BME280;3924;48.830;9.262;2024-02-26T04:33:10;96707.97;;;7.06;68.46
7760;BME280;3924;48.830;9.262;2024-02-26T04:35:36;96707.69;;;7.07;68.46
7760;BME280;3924;48.830;9.262;2024-02-26T04:38:03;96706.91;;;7.07;68.33
7760;BME280;3924;48.830;9.262;2024-02-26T04:40:29;96719.25;;;7.08;68.41
7760;BME280;3924;48.830;9.262;2024-02-26T04:42:56;96708.47;;;7.08;68.29
7760;BME280;3924;48.830;9.262;2024-02-26T04:45:23;96703.09;;;7.08;68.46
7760;BME280;3924;48.830;9.262;2024-02-26T04:47:50;96706.91;;;7.07;68.46
7760;BME280;3924;48.830;9.262;2024-02-26T04:50:16;96704.22;;;7.07;68.65
7760;BME280;3924;48.830;9.262;2024-02-26T04:52:43;96710.38;;;7.07;68.31
7760;BME280;3924;48.830;9.262;2024-02-26T04:55:09;96702.78;;;7.09;68.75
7760;BME280;3924;48.830;9.262;2024-02-26T04:57:36;96708.63;;;7.11;68.57
7760;BME280;3924;48.830;9.262;2024-02-26T05:00:04;96701.00;;;7.13;68.33
7760;BME280;3924;48.830;9.262;2024-02-26T05:02:31;96711.00;;;7.13;68.24
7760;BME280;3924;48.830;9.262;2024-02-26T05:04:59;96712.75;;;7.18;68.42
7760;BME280;3924;48.830;9.262;2024-02-26T05:07:26;96715.13;;;7.19;68.25
7760;BME280;3924;48.830;9.262;2024-02-26T05:09:53;96722.94;;;7.21;68.06
7760;BME280;3924;48.830;9.262;2024-02-26T05:12:19;96719.59;;;7.24;68.51
7760;BME280;3924;48.830;9.262;2024-02-26T05:14:46;96718.47;;;7.25;68.17
7760;BME280;3924;48.830;9.262;2024-02-26T05:17:12;96713.88;;;7.25;68.22
7760;BME280;3924;48.830;9.262;2024-02-26T05:19:39;96713.72;;;7.30;68.03
7760;BME280;3924;48.830;9.262;2024-02-26T05:22:06;96712.00;;;7.34;67.81
7760;BME280;3924;48.830;9.262;2024-02-26T05:24:32;96712.00;;;7.34;67.65
7760;BME280;3924;48.830;9.262;2024-02-26T05:27:00;96712.78;;;7.35;67.61
7760;BME280;3924;48.830;9.262;2024-02-26T05:29:26;96724.34;;;7.35;67.76
7760;BME280;3924;48.830;9.262;2024-02-26T05:31:53;96729.09;;;7.38;67.72
7760;BME280;3924;48.830;9.262;2024-02-26T05:34:20;96729.44;;;7.37;67.78
7760;BME280;3924;48.830;9.262;2024-02-26T05:36:48;96728.16;;;7.34;67.58
7760;BME280;3924;48.830;9.262;2024-02-26T05:39:15;96736.53;;;7.33;67.46
7760;BME280;3924;48.830;9.262;2024-02-26T05:41:46;96744.94;;;7.31;67.55
7760;BME280;3924;48.830;9.262;2024-02-26T05:44:12;96753.34;;;7.30;67.40
7760;BME280;3924;48.830;9.262;2024-02-26T05:46:39;96763.34;;;7.29;67.58
7760;BME280;3924;48.830;9.262;2024-02-26T05:49:06;96774.44;;;7.28;67.69
7760;BME280;3924;48.830;9.262;2024-02-26T05:51:33;96787.09;;;7.27;67.71
7760;BME280;3924;48.830;9.262;2024-02-26T05:54:00;96793.59;;;7.26;67.94
7760;BME280;3924;48.830;9.262;2024-02-26T05:56:27;96790.13;;;7.26;67.86
7760;BME280;3924;48.830;9.262;2024-02-26T05:58:53;96791.22;;;7.25;68.15
7760;BME280;3924;48.830;9.262;2024-02-26T06:01:20;96791.56;;;7.23;68.25
7760;BME280;3924;48.830;9.262;2024-02-26T06:03:47;96789.66;;;7.24;68.22
7760;BME280;3924;48.830;9.262;2024-02-26T06:06:14;96791.56;;;7.23;68.29
7760;BME280;3924;48.830;9.262;2024-02-26T06:08:42;96789.19;;;7.22;68.07
7760;BME280;3924;48.830;9.262;2024-02-26T06:11:09;96777.59;;;7.21;67.91
7760;BME280;3924;48.830;9.262;2024-02-26T06:13:35;96777.59;;;7.21;68.29
7760;BME280;3924;48.830;9.262;2024-02-26T06:16:02;96779.81;;;7.19;68.41
7760;BME280;3924;48.830;9.262;2024-02-26T06:18:29;96782.03;;;7.17;68.55
7760;BME280;3924;48.830;9.262;2024-02-26T06:20:56;96792.34;;;7.15;68.79
7760;BME280;3924;48.830;9.262;2024-02-26T06:23:23;96782.16;;;7.12;68.79
7760;BME280;3924;48.830;9.262;2024-02-26T06:25:49;96787.88;;;7.10;69.01
7760;BME280;3924;48.830;9.262;2024-02-26T06:28:16;96796.28;;;7.09;69.01
7760;BME280;3924;48.830;9.262;2024-02-26T06:30:42;96786.13;;;7.06;68.81
7760;BME280;3924;48.830;9.262;2024-02-26T06:33:09;96795.81;;;7.07;69.28
7760;BME280;3924;48.830;9.262;2024-02-26T06:35:37;96793.91;;;7.07;69.43
7760;BME280;3924;48.830;9.262;2024-02-26T06:38:05;96796.88;;;7.06;69.49
7760;BME280;3924;48.830;9.262;2024-02-26T06:40:33;96790.41;;;7.07;69.65
7760;BME280;3924;48.830;9.262;2024-02-26T06:43:00;96795.31;;;7.05;69.74
7760;BME280;3924;48.830;9.262;2024-02-26T06:45:27;96797.69;;;7.06;69.98
7760;BME280;3924;48.830;9.262;2024-02-26T06:47:54;96796.59;;;7.07;69.84
7760;BME280;3924;48.830;9.262;2024-02-26T06:50:22;96810.53;;;7.09;70.02
7760;BME280;3924;48.830;9.262;2024-02-26T06:52:48;96802.47;;;7.09;70.04
7760;BME280;3924;48.830;9.262;2024-02-26T06:55:15;96812.44;;;7.09;70.38
7760;BME280;3924;48.830;9.262;2024-02-26T06:57:41;96819.41;;;7.10;70.17
7760;BME280;3924;48.830;9.262;2024-02-26T07:00:08;96812.59;;;7.12;70.24
7760;BME280;3924;48.830;9.262;2024-02-26T07:02:38;96821.97;;;7.15;70.38
7760;BME280;3924;48.830;9.262;2024-02-26T07:05:06;96834.81;;;7.18;70.32
7760;BME280;3924;48.830;9.262;2024-02-26T07:07:32;96836.91;;;7.21;70.54
7760;BME280;3924;48.830;9.262;2024-02-26T07:09:59;96841.66;;;7.24;70.50
7760;BME280;3924;48.830;9.262;2024-02-26T07:12:26;96848.63;;;7.25;70.76
7760;BME280;3924;48.830;9.262;2024-02-26T07:14:53;96852.28;;;7.29;70.67
7760;BME280;3924;48.830;9.262;2024-02-26T07:17:19;96851.97;;;7.31;70.45
7760;BME280;3924;48.830;9.262;2024-02-26T07:19:46;96857.84;;;7.33;70.83
7760;BME280;3924;48.830;9.262;2024-02-26T07:22:12;96864.00;;;7.33;70.83
7760;BME280;3924;48.830;9.262;2024-02-26T07:24:40;96868.81;;;7.36;70.66
7760;BME280;3924;48.830;9.262;2024-02-26T07:27:06;96873.09;;;7.37;71.02
7760;BME280;3924;48.830;9.262;2024-02-26T07:29:33;96874.66;;;7.38;71.03
7760;BME280;3924;48.830;9.262;2024-02-26T07:31:59;96864.53;;;7.35;71.09
7760;BME280;3924;48.830;9.262;2024-02-26T07:34:26;96869.41;;;7.33;71.16
7760;BME280;3924;48.830;9.262;2024-02-26T07:36:56;96872.91;;;7.34;70.89
7760;BME280;3924;48.830;9.262;2024-02-26T07:39:23;96873.72;;;7.34;71.50
7760;BME280;3924;48.830;9.262;2024-02-26T07:41:49;96872.28;;;7.37;71.19
7760;BME280;3924;48.830;9.262;2024-02-26T07:44:19;96870.84;;;7.39;71.17
7760;BME280;3924;48.830;9.262;2024-02-26T07:46:46;96872.94;;;7.43;71.21
7760;BME280;3924;48.830;9.262;2024-02-26T07:49:14;96869.59;;;7.46;71.24
7760;BME280;3924;48.830;9.262;2024-02-26T07:51:41;96881.38;;;7.50;71.23
7760;BME280;3924;48.830;9.262;2024-02-26T07:54:08;96877.56;;;7.51;71.25
7760;BME280;3924;48.830;9.262;2024-02-26T07:56:35;96879.94;;;7.52;71.24
7760;BME280;3924;48.830;9.262;2024-02-26T07:59:01;96891.19;;;7.54;71.11
7760;BME280;3924;48.830;9.262;2024-02-26T08:01:28;96882.50;;;7.57;71.00
7760;BME280;3924;48.830;9.262;2024-02-26T08:03:54;96885.84;;;7.63;71.16
7760;BME280;3924;48.830;9.262;2024-02-26T08:06:23;96889.97;;;7.69;70.92
7760;BME280;3924;48.830;9.262;2024-02-26T08:08:50;96885.53;;;7.73;70.76
7760;BME280;3924;48.830;9.262;2024-02-26T08:11:16;96881.09;;;7.77;70.84
7760;BME280;3924;48.830;9.262;2024-02-26T08:13:43;96878.25;;;7.82;70.79
7760;BME280;3924;48.830;9.262;2024-02-26T08:16:10;96877.63;;;7.85;70.63
7760;BME280;3924;48.830;9.262;2024-02-26T08:18:36;96882.84;;;7.90;70.76
7760;BME280;3924;48.830;9.262;2024-02-26T08:21:03;96873.00;;;7.94;70.67
7760;BME280;3924;48.830;9.262;2024-02-26T08:23:30;96869.69;;;7.98;70.67
7760;BME280;3924;48.830;9.262;2024-02-26T08:25:57;96867.78;;;7.98;70.50
7760;BME280;3924;48.830;9.262;2024-02-26T08:28:24;96882.06;;;7.99;70.58
7760;BME280;3924;48.830;9.262;2024-02-26T08:30:51;96883.97;;;7.98;70.84
7760;BME280;3924;48.830;9.262;2024-02-26T08:33:17;96882.69;;;7.95;70.71
7760;BME280;3924;48.830;9.262;2024-02-26T08:35:44;96874.13;;;7.93;71.22
7760;BME280;3924;48.830;9.262;2024-02-26T08:38:11;96875.69;;;7.94;71.13
7760;BME280;3924;48.830;9.262;2024-02-26T08:40:38;96869.69;;;7.98;71.00
7760;BME280;3924;48.830;9.262;2024-02-26T08:43:05;96869.50;;;8.03;71.19
7760;BME280;3924;48.830;9.262;2024-02-26T08:45:31;96873.16;;;8.07;71.14
7760;BME280;3924;48.830;9.262;2024-02-26T08:47:58;96876.66;;;8.07;71.02
7760;BME280;3924;48.830;9.262;2024-02-26T08:50:26;96870.78;;;8.05;71.25
7760;BME280;3924;48.830;9.262;2024-02-26T08:52:53;96882.22;;;8.02;71.25
7760;BME280;3924;48.830;9.262;2024-02-26T08:55:20;96887.47;;;7.99;71.63
7760;BME280;3924;48.830;9.262;2024-02-26T08:57:47;96890.94;;;7.99;71.45
7760;BME280;3924;48.830;9.262;2024-02-26T09:00:14;96890.00;;;8.04;71.48
7760;BME280;3924;48.830;9.262;2024-02-26T09:02:47;96888.75;;;8.10;71.71
7760;BME280;3924;48.830;9.262;2024-02-26T09:05:15;96895.09;;;8.14;71.68
7760;BME280;3924;48.830;9.262;2024-02-26T09:07:42;96897.78;;;8.14;71.42
7760;BME280;3924;48.830;9.262;2024-02-26T09:10:09;96895.09;;;8.14;71.69
7760;BME280;3924;48.830;9.262;2024-02-26T09:12:37;96890.47;;;8.14;71.46
7760;BME280;3924;48.830;9.262;2024-02-26T09:15:06;96893.03;;;8.19;71.52
7760;BME280;3924;48.830;9.262;2024-02-26T09:17:33;96893.66;;;8.25;71.66
7760;BME280;3924;48.830;9.262;2024-02-26T09:20:01;96884.75;;;8.33;71.45
7760;BME280;3924;48.830;9.262;2024-02-26T09:22:28;96885.56;;;8.42;71.48
7760;BME280;3924;48.830;9.262;2024-02-26T09:24:55;96891.28;;;8.49;71.42
7760;BME280;3924;48.830;9.262;2024-02-26T09:27:22;96894.47;;;8.52;71.24
7760;BME280;3924;48.830;9.262;2024-02-26T09:29:50;96891.56;;;8.57;70.99
7760;BME280;3924;48.830;9.262;2024-02-26T09:32:17;96890.94;;;8.60;71.27
7760;BME280;3924;48.830;9.262;2024-02-26T09:34:44;96893.16;;;8.66;71.18
7760;BME280;3924;48.830;9.262;2024-02-26T09:37:11;96896.97;;;8.74;71.05
7760;BME280;3924;48.830;9.262;2024-02-26T09:39:47;96890.41;;;8.84;71.11
7760;BME280;3924;48.830;9.262;2024-02-26T09:42:14;96889.91;;;8.90;70.72
7760;BME280;3924;48.830;9.262;2024-02-26T09:44:45;96894.69;;;8.93;71.01
7760;BME280;3924;48.830;9.262;2024-02-26T09:47:12;96894.19;;;8.91;70.91
7760;BME280;3924;48.830;9.262;2024-02-26T09:49:45;96903.91;;;8.92;71.27
7760;BME280;3924;48.830;9.262;2024-02-26T09:52:14;96906.13;;;8.90;71.27
7760;BME280;3924;48.830;9.262;2024-02-26T09:54:47;96911.53;;;8.90;71.38
7760;BME280;3924;48.830;9.262;2024-02-26T09:57:15;96912.50;;;8.94;71.11
7760;BME280;3924;48.830;9.262;2024-02-26T09:59:44;96908.63;;;9.04;70.97
7760;BME280;3924;48.830;9.262;2024-02-26T10:02:13;96911.78;;;9.15;70.80
7760;BME280;3924;48.830;9.262;2024-02-26T10:04:40;96905.22;;;9.24;70.84
7760;BME280;3924;48.830;9.262;2024-02-26T10:07:11;96903.41;;;9.37;70.80
7760;BME280;3924;48.830;9.262;2024-02-26T10:09:39;96903.06;;;9.47;70.53
7760;BME280;3924;48.830;9.262;2024-02-26T10:12:08;96904.94;;;9.55;70.20
7760;BME280;3924;48.830;9.262;2024-02-26T10:14:36;96904.19;;;9.76;70.20
7760;BME280;3924;48.830;9.262;2024-02-26T10:17:06;96914.69;;;9.98;69.94
7760;BME280;3924;48.830;9.262;2024-02-26T10:19:35;96911.50;;;10.26;69.49
7760;BME280;3924;48.830;9.262;2024-02-26T10:22:04;96912.94;;;10.44;69.08
7760;BME280;3924;48.830;9.262;2024-02-26T10:24:31;96913.88;;;10.81;68.37
7760;BME280;3924;48.830;9.262;2024-02-26T10:26:58;96924.22;;;11.00;67.84
7760;BME280;3924;48.830;9.262;2024-02-26T10:29:25;96927.81;;;10.92;68.12
7760;BME280;3924;48.830;9.262;2024-02-26T10:31:52;96925.75;;;10.89;68.19
7760;BME280;3924;48.830;9.262;2024-02-26T10:34:19;96919.22;;;11.02;67.72
7760;BME280;3924;48.830;9.262;2024-02-26T10:36:45;96919.91;;;11.11;67.60
7760;BME280;3924;48.830;9.262;2024-02-26T10:39:20;96921.75;;;11.07;67.39
7760;BME280;3924;48.830;9.262;2024-02-26T10:41:48;96918.78;;;11.00;67.59
7760;BME280;3924;48.830;9.262;2024-02-26T10:44:15;96910.84;;;10.95;67.34
7760;BME280;3924;48.830;9.262;2024-02-26T10:46:46;96917.22;;;11.11;66.78
7760;BME280;3924;48.830;9.262;2024-02-26T10:49:14;96905.50;;;11.19;66.52
7760;BME280;3924;48.830;9.262;2024-02-26T10:51:45;96916.56;;;11.14;66.39
7760;BME280;3924;48.830;9.262;2024-02-26T10:54:16;96919.91;;;11.11;66.16
7760;BME280;3924;48.830;9.262;2024-02-26T10:56:43;96929.31;;;11.14;66.10
7760;BME280;3924;48.830;9.262;2024-02-26T10:59:12;96919.16;;;11.23;65.92
7760;BME280;3924;48.830;9.262;2024-02-26T11:01:39;96924.59;;;11.35;65.29
7760;BME280;3924;48.830;9.262;2024-02-26T11:04:08;96917.72;;;11.50;65.04
7760;BME280;3924;48.830;9.262;2024-02-26T11:06:37;96916.38;;;11.56;65.02
7760;BME280;3924;48.830;9.262;2024-02-26T11:09:04;96916.59;;;11.63;64.74
7760;BME280;3924;48.830;9.262;2024-02-26T11:11:33;96914.78;;;11.67;64.39
7760;BME280;3924;48.830;9.262;2024-02-26T11:14:03;96913.88;;;11.63;64.42
7760;BME280;3924;48.830;9.262;2024-02-26T11:16:30;96927.00;;;11.73;64.29
7760;BME280;3924;48.830;9.262;2024-02-26T11:18:57;96925.31;;;11.93;63.71
7760;BME280;3924;48.830;9.262;2024-02-26T11:21:24;96922.91;;;12.16;63.01
7760;BME280;3924;48.830;9.262;2024-02-26T11:23:56;96920.81;;;12.38;62.86
7760;BME280;3924;48.830;9.262;2024-02-26T11:26:23;96925.06;;;12.51;62.20
7760;BME280;3924;48.830;9.262;2024-02-26T11:28:52;96922.59;;;12.46;61.86
7760;BME280;3924;48.830;9.262;2024-02-26T11:31:19;96915.97;;;12.31;62.19
7760;BME280;3924;48.830;9.262;2024-02-26T11:33:54;96923.69;;;12.17;62.56
7760;BME280;3924;48.830;9.262;2024-02-26T11:36:23;96917.69;;;12.11;62.12
7760;BME280;3924;48.830;9.262;2024-02-26T11:38:50;96916.78;;;12.07;62.28
7760;BME280;3924;48.830;9.262;2024-02-26T11:41:18;96922.22;;;12.07;62.08
7760;BME280;3924;48.830;9.262;2024-02-26T11:43:53;96924.91;;;12.19;61.71
7760;BME280;3924;48.830;9.262;2024-02-26T11:46:33;96917.69;;;12.23;61.51
7760;BME280;3924;48.830;9.262;2024-02-26T11:49:40;96930.16;;;12.12;61.69
7760;BME280;3924;48.830;9.262;2024-02-26T11:52:08;96932.41;;;12.10;61.64
7760;BME280;3924;48.830;9.262;2024-02-26T11:54:53;96926.28;;;12.13;61.46
7760;BME280;3924;48.830;9.262;2024-02-26T11:59:47;96928.56;;;12.11;61.40
7760;BME280;3924;48.830;9.262;2024-02-26T12:05:20;96929.00;;;12.25;61.04
7760;BME280;3924;48.830;9.262;2024-02-26T12:07:55;96920.91;;;12.41;60.38
7760;BME280;3924;48.830;9.262;2024-02-26T12:10:26;96922.50;;;12.70;60.09
7760;BME280;3924;48.830;9.262;2024-02-26T12:15:24;96933.50;;;12.90;59.32
7760;BME280;3924;48.830;9.262;2024-02-26T12:17:53;96935.25;;;12.82;59.31
7760;BME280;3924;48.830;9.262;2024-02-26T12:20:19;96936.09;;;12.70;59.44
7760;BME280;3924;48.830;9.262;2024-02-26T12:22:46;96928.66;;;12.55;59.47
7760;BME280;3924;48.830;9.262;2024-02-26T12:25:16;96931.97;;;12.48;59.97
7760;BME280;3924;48.830;9.262;2024-02-26T12:27:42;96938.91;;;12.46;59.71
7760;BME280;3924;48.830;9.262;2024-02-26T12:30:09;96939.25;;;12.44;59.59
7760;BME280;3924;48.830;9.262;2024-02-26T12:32:36;96950.91;;;12.45;59.54
7760;BME280;3924;48.830;9.262;2024-02-26T12:35:05;96945.13;;;12.46;59.35
7760;BME280;3924;48.830;9.262;2024-02-26T12:37:32;96943.63;;;12.49;59.42
7760;BME280;3924;48.830;9.262;2024-02-26T12:39:58;96949.78;;;12.46;59.43
7760;BME280;3924;48.830;9.262;2024-02-26T12:42:25;96944.56;;;12.41;59.71
7760;BME280;3924;48.830;9.262;2024-02-26T12:44:52;96943.44;;;12.42;59.46
7760;BME280;3924;48.830;9.262;2024-02-26T12:47:19;96940.59;;;12.50;59.28
7760;BME280;3924;48.830;9.262;2024-02-26T12:49:48;96946.44;;;12.65;58.92
7760;BME280;3924;48.830;9.262;2024-02-26T12:52:16;96950.34;;;12.79;58.62
7760;BME280;3924;48.830;9.262;2024-02-26T12:54:46;96942.75;;;13.01;58.01
7760;BME280;3924;48.830;9.262;2024-02-26T12:57:15;96948.72;;;13.34;57.62
7760;BME280;3924;48.830;9.262;2024-02-26T12:59:45;96950.84;;;13.57;57.04
7760;BME280;3924;48.830;9.262;2024-02-26T13:02:12;96946.81;;;13.66;56.47
7760;BME280;3924;48.830;9.262;2024-02-26T13:04:39;96958.31;;;13.60;56.78
7760;BME280;3924;48.830;9.262;2024-02-26T13:07:06;96959.53;;;13.47;57.10
7760;BME280;3924;48.830;9.262;2024-02-26T13:09:34;96961.63;;;13.37;56.79
7760;BME280;3924;48.830;9.262;2024-02-26T13:12:05;96960.75;;;13.33;56.93
7760;BME280;3924;48.830;9.262;2024-02-26T13:14:32;96959.84;;;13.29;56.73
7760;BME280;3924;48.830;9.262;2024-02-26T13:17:00;96955.56;;;13.28;56.78
7760;BME280;3924;48.830;9.262;2024-02-26T13:19:27;96963.66;;;13.25;56.97
7760;BME280;3924;48.830;9.262;2024-02-26T13:22:06;96966.94;;;13.18;57.15
7760;BME280;3924;48.830;9.262;2024-02-26T13:24:34;96961.03;;;13.16;57.14
7760;BME280;3924;48.830;9.262;2024-02-26T13:27:01;96960.59;;;13.14;56.91
7760;BME280;3924;48.830;9.262;2024-02-26T13:29:29;96959.44;;;13.15;57.02
7760;BME280;3924;48.830;9.262;2024-02-26T13:31:59;96958.66;;;13.14;57.37
7760;BME280;3924;48.830;9.262;2024-02-26T13:34:27;96957.88;;;13.14;56.96
7760;BME280;3924;48.830;9.262;2024-02-26T13:37:03;96956.72;;;13.15;56.93
7760;BME280;3924;48.830;9.262;2024-02-26T13:39:32;96963.88;;;13.20;57.17